RJAN(METAR)
12/16 16:00
RJAN 160700Z 28022KT 9999 RA SCT030 BKNXXX 13/05 Q1011 RMK A2988=
戻る
トップページへ戻る
IMOC Co,.Ltd.